Time;durP1;ratioP1;P1;durP2;ratioP2;P2;SDS_P1;SDS_P2;PMS_P1;PMS_P2;Temp;Humidity;BMP_temperature;BMP_pressure;BME280_temperature;BME280_humidity;BME280_pressure;Samples;Min_cycle;Max_cycle;Signal;HPM_P1;HPM_P2
2022/07/16 00:03:27;;;;;;;;;;;9.90;99.90;;;;;;5126076;27;19911;-55
2022/07/16 00:06:07;;;;;;;;;;;9.80;99.90;;;;;;5097949;27;19923;-55
2022/07/16 00:08:47;;;;;;;;;;;9.80;99.90;;;;;;5105413;27;20374;-54
2022/07/16 00:11:26;;;;;;;;;;;9.70;99.90;;;;;;5125822;27;19912;-55
2022/07/16 00:14:06;;;;;;;;;;;9.60;99.90;;;;;;5105706;27;19953;-54
2022/07/16 00:16:46;;;;;;;;;;;9.50;99.90;;;;;;5112880;27;19930;-55
2022/07/16 00:19:26;;;;;;;;;;;9.40;99.90;;;;;;5125623;27;19912;-54
2022/07/16 00:22:06;;;;;;;;;;;9.30;99.90;;;;;;5125590;27;19916;-55
2022/07/16 00:24:46;;;;;;;;;;;9.20;99.90;;;;;;5125735;27;20308;-54
2022/07/16 00:27:26;;;;;;;;;;;9.10;99.90;;;;;;5107740;27;19916;-54
2022/07/16 00:30:06;;;;;;;;;;;9.10;99.90;;;;;;5125974;27;19912;-54
2022/07/16 00:32:47;;;;;;;;;;;9.10;99.90;;;;;;5125383;27;20316;-54
2022/07/16 00:35:27;;;;;;;;;;;9.00;99.90;;;;;;5104789;27;19916;-55
2022/07/16 00:38:08;;;;;;;;;;;9.10;99.90;;;;;;5124806;27;20111;-55
2022/07/16 00:40:48;;;;;;;;;;;9.10;99.90;;;;;;5105415;27;19926;-54
2022/07/16 00:43:28;;;;;;;;;;;9.00;99.90;;;;;;5105067;27;19930;-55
2022/07/16 00:46:07;;;;;;;;;;;8.90;99.90;;;;;;5124646;27;19912;-54
2022/07/16 00:48:47;;;;;;;;;;;8.80;99.90;;;;;;5105066;27;19957;-55
2022/07/16 00:51:27;;;;;;;;;;;8.80;99.90;;;;;;5104836;27;19957;-54
2022/07/16 00:54:07;;;;;;;;;;;8.80;99.90;;;;;;5125977;27;19922;-55
2022/07/16 00:56:47;;;;;;;;;;;8.70;99.90;;;;;;5124969;27;20381;-55
2022/07/16 00:59:28;;;;;;;;;;;8.70;99.90;;;;;;5104684;27;19953;-54
2022/07/16 01:02:08;;;;;;;;;;;8.60;99.90;;;;;;5104924;27;20276;-54
2022/07/16 01:04:48;;;;;;;;;;;8.60;99.90;;;;;;5105167;27;20447;-54
2022/07/16 01:07:28;;;;;;;;;;;8.60;99.90;;;;;;5124327;27;20373;-54
2022/07/16 01:10:08;;;;;;;;;;;8.50;99.90;;;;;;5125587;27;19918;-54
2022/07/16 01:12:49;;;;;;;;;;;8.50;99.90;;;;;;5125815;27;19912;-54
2022/07/16 01:15:29;;;;;;;;;;;8.40;99.90;;;;;;5125304;27;20278;-55
2022/07/16 01:18:09;;;;;;;;;;;8.40;99.90;;;;;;5104155;27;19930;-55
2022/07/16 01:20:48;;;;;;;;;;;8.30;99.90;;;;;;5104924;27;19930;-55
2022/07/16 01:23:28;;;;;;;;;;;8.20;99.90;;;;;;5124397;27;19912;-55
2022/07/16 01:26:08;;;;;;;;;;;8.10;99.90;;;;;;5118861;27;20207;-55
2022/07/16 01:28:48;;;;;;;;;;;8.10;99.90;;;;;;5124274;27;19946;-54
2022/07/16 01:31:28;;;;;;;;;;;8.20;99.90;;;;;;5120649;27;20403;-54
2022/07/16 01:34:26;;;;;;;;;;;8.20;99.90;;;;;;5111567;27;19912;-55
2022/07/16 01:37:08;;;;;;;;;;;8.20;99.90;;;;;;5109225;27;20271;-54
2022/07/16 01:39:48;;;;;;;;;;;8.10;99.90;;;;;;5103931;27;19920;-55
2022/07/16 01:42:28;;;;;;;;;;;8.00;99.90;;;;;;5099269;27;19961;-54
2022/07/16 01:45:09;;;;;;;;;;;7.90;99.90;;;;;;5098612;27;20410;-54
2022/07/16 01:47:49;;;;;;;;;;;7.80;99.90;;;;;;5102698;27;19916;-55
2022/07/16 01:50:29;;;;;;;;;;;7.90;99.90;;;;;;5120836;27;19912;-54
2022/07/16 01:53:09;;;;;;;;;;;7.90;99.90;;;;;;5104804;27;20419;-54
2022/07/16 01:55:50;;;;;;;;;;;7.80;99.90;;;;;;5120300;27;19916;-55
2022/07/16 01:58:30;;;;;;;;;;;7.70;99.90;;;;;;5104542;27;19954;-54
2022/07/16 02:01:10;;;;;;;;;;;7.80;99.90;;;;;;5104893;27;20335;-55
2022/07/16 02:03:50;;;;;;;;;;;7.80;99.90;;;;;;5125447;27;19912;-55
2022/07/16 02:06:30;;;;;;;;;;;7.70;99.90;;;;;;5114792;27;19912;-54
2022/07/16 02:09:09;;;;;;;;;;;7.70;99.90;;;;;;5125076;27;19912;-55
2022/07/16 02:11:49;;;;;;;;;;;7.70;99.90;;;;;;5125945;27;19926;-55
2022/07/16 02:14:29;;;;;;;;;;;7.70;99.90;;;;;;5104968;27;19953;-55
2022/07/16 02:17:09;;;;;;;;;;;7.70;99.90;;;;;;5124267;27;19915;-55
2022/07/16 02:19:49;;;;;;;;;;;7.70;99.90;;;;;;5104940;27;19926;-54
2022/07/16 02:22:29;;;;;;;;;;;7.70;99.90;;;;;;5105375;27;19926;-57
2022/07/16 02:25:09;;;;;;;;;;;7.70;99.90;;;;;;5104872;27;19912;-54
2022/07/16 02:28:08;;;;;;;;;;;7.60;99.90;;;;;;5124447;27;19934;-54
2022/07/16 02:30:50;;;;;;;;;;;7.50;99.90;;;;;;5126029;27;19918;-54
2022/07/16 02:33:30;;;;;;;;;;;7.50;99.90;;;;;;5125055;27;19918;-55
2022/07/16 02:36:10;;;;;;;;;;;7.50;99.90;;;;;;5097580;27;19912;-55
2022/07/16 02:38:50;;;;;;;;;;;7.50;99.90;;;;;;5125140;27;19915;-56
2022/07/16 02:41:30;;;;;;;;;;;7.50;99.90;;;;;;5125513;27;19920;-54
2022/07/16 02:44:09;;;;;;;;;;;7.40;99.90;;;;;;5105236;27;20317;-55
2022/07/16 02:46:49;;;;;;;;;;;7.40;99.90;;;;;;5113449;27;20114;-55
2022/07/16 02:49:29;;;;;;;;;;;7.40;99.90;;;;;;5104675;27;19926;-55
2022/07/16 02:52:09;;;;;;;;;;;7.40;99.90;;;;;;5105445;27;19957;-55
2022/07/16 02:54:49;;;;;;;;;;;7.40;99.90;;;;;;5125548;27;19918;-55
2022/07/16 02:57:29;;;;;;;;;;;7.50;99.90;;;;;;5148678;22;19969;-56
2022/07/16 03:00:10;;;;;;;;;;;7.60;99.90;;;;;;5125486;27;19911;-56
2022/07/16 03:02:50;;;;;;;;;;;7.60;99.90;;;;;;5105016;27;19926;-56
2022/07/16 03:05:30;;;;;;;;;;;7.70;99.90;;;;;;5125056;27;19912;-56
2022/07/16 03:08:10;;;;;;;;;;;7.70;99.90;;;;;;5093510;27;19912;-56
2022/07/16 03:10:49;;;;;;;;;;;7.60;99.90;;;;;;5146076;27;20338;-57
2022/07/16 03:13:29;;;;;;;;;;;7.50;99.90;;;;;;5124779;27;20381;-56
2022/07/16 03:16:09;;;;;;;;;;;7.40;99.90;;;;;;5124449;27;19915;-56
2022/07/16 03:18:49;;;;;;;;;;;7.40;99.90;;;;;;5120415;27;19912;-56
2022/07/16 03:21:29;;;;;;;;;;;7.30;99.90;;;;;;5104328;27;20202;-56
2022/07/16 03:24:09;;;;;;;;;;;7.20;99.90;;;;;;5104840;27;19958;-56
2022/07/16 03:26:48;;;;;;;;;;;7.20;99.90;;;;;;5083968;28;19912;-56
2022/07/16 03:29:28;;;;;;;;;;;7.10;99.90;;;;;;5125365;27;20276;-56
2022/07/16 03:32:08;;;;;;;;;;;7.10;99.90;;;;;;5125748;27;19918;-56
2022/07/16 03:34:48;;;;;;;;;;;7.10;99.90;;;;;;5117945;27;19930;-56
2022/07/16 03:37:28;;;;;;;;;;;7.10;99.90;;;;;;5106634;27;19920;-58
2022/07/16 03:39:55;;;;;;;;;;;7.10;99.90;;;;;;5097069;28;19928;-57
2022/07/16 03:42:35;;;;;;;;;;;7.10;99.90;;;;;;5121297;27;20296;-57
2022/07/16 03:45:15;;;;;;;;;;;7.10;99.90;;;;;;5124334;27;19915;-57
2022/07/16 03:47:54;;;;;;;;;;;7.10;99.90;;;;;;5124288;27;19919;-56
2022/07/16 03:50:34;;;;;;;;;;;7.20;99.90;;;;;;5147938;27;19946;-57
2022/07/16 03:53:14;;;;;;;;;;;7.30;99.90;;;;;;5124589;27;20513;-57
2022/07/16 03:55:54;;;;;;;;;;;7.40;99.90;;;;;;5088774;27;19930;-57
2022/07/16 03:58:34;;;;;;;;;;;7.50;99.90;;;;;;5069629;28;19913;-57
2022/07/16 04:01:14;;;;;;;;;;;7.70;99.90;;;;;;5125022;27;19912;-57
2022/07/16 04:03:53;;;;;;;;;;;7.90;99.90;;;;;;5125730;27;19912;-57
2022/07/16 04:06:33;;;;;;;;;;;8.20;99.90;;;;;;5124749;27;20293;-56
2022/07/16 04:09:13;;;;;;;;;;;8.40;99.90;;;;;;5125382;27;20385;-58
2022/07/16 04:11:53;;;;;;;;;;;8.50;99.90;;;;;;5125989;27;19918;-56
2022/07/16 04:14:33;;;;;;;;;;;8.50;99.90;;;;;;5125818;27;19918;-57
2022/07/16 04:17:12;;;;;;;;;;;8.50;99.90;;;;;;5121786;27;19911;-57
2022/07/16 04:19:52;;;;;;;;;;;8.50;99.90;;;;;;5125729;27;19912;-57
2022/07/16 04:22:32;;;;;;;;;;;8.50;99.90;;;;;;5125439;27;19918;-57
2022/07/16 04:25:13;;;;;;;;;;;8.70;99.90;;;;;;5125194;27;19912;-57
2022/07/16 04:27:53;;;;;;;;;;;9.10;99.90;;;;;;5116299;27;19912;-57
2022/07/16 04:30:33;;;;;;;;;;;10.40;99.90;;;;;;5125576;27;19912;-56
2022/07/16 04:33:13;;;;;;;;;;;11.90;99.90;;;;;;5105297;27;20439;-57
2022/07/16 04:35:53;;;;;;;;;;;13.10;99.90;;;;;;5124999;27;19912;-56
2022/07/16 04:38:33;;;;;;;;;;;13.90;99.90;;;;;;5111479;27;19912;-56
2022/07/16 04:41:13;;;;;;;;;;;14.70;99.90;;;;;;5105186;27;19918;-56
2022/07/16 04:43:52;;;;;;;;;;;15.40;99.90;;;;;;5125886;27;19918;-55
2022/07/16 04:46:32;;;;;;;;;;;15.40;99.90;;;;;;5097305;27;20290;-56
2022/07/16 04:49:12;;;;;;;;;;;15.10;99.90;;;;;;5122698;27;19939;-56
2022/07/16 04:51:52;;;;;;;;;;;15.30;99.90;;;;;;5103590;27;19950;-56
2022/07/16 04:54:34;;;;;;;;;;;15.80;99.90;;;;;;5125012;27;20334;-56
2022/07/16 04:57:15;;;;;;;;;;;16.40;99.90;;;;;;5103801;27;19957;-55
2022/07/16 04:59:55;;;;;;;;;;;16.70;99.90;;;;;;5125366;27;19918;-55
2022/07/16 05:05:46;;;;;;;;;;;17.30;99.90;;;;;;5125298;27;19926;-55
2022/07/16 05:08:26;;;;;;;;;;;17.80;99.90;;;;;;5124870;27;19922;-55
2022/07/16 05:11:06;;;;;;;;;;;18.00;99.90;;;;;;5125029;27;20380;-55
2022/07/16 05:13:46;;;;;;;;;;;18.10;99.90;;;;;;5125961;27;20264;-56
2022/07/16 05:16:25;;;;;;;;;;;18.20;99.90;;;;;;5098026;27;19930;-55
2022/07/16 05:19:05;;;;;;;;;;;18.50;99.90;;;;;;5099863;27;19922;-55
2022/07/16 05:21:45;;;;;;;;;;;18.60;99.90;;;;;;5122874;27;19916;-55
2022/07/16 05:24:25;;;;;;;;;;;18.60;99.90;;;;;;5102232;27;20340;-55
2022/07/16 05:27:05;;;;;;;;;;;18.20;99.90;;;;;;5121037;27;19915;-55
2022/07/16 05:29:45;;;;;;;;;;;18.30;99.90;;;;;;5123324;27;20411;-56
2022/07/16 05:32:24;;;;;;;;;;;18.50;99.90;;;;;;5124366;27;19912;-56
2022/07/16 05:35:05;;;;;;;;;;;18.70;99.90;;;;;;5125026;27;19916;-56
2022/07/16 05:37:46;;;;;;;;;;;18.70;99.90;;;;;;5116743;27;19912;-55
2022/07/16 05:40:26;;;;;;;;;;;18.20;99.90;;;;;;5125254;27;19918;-55
2022/07/16 05:43:06;;;;;;;;;;;17.40;99.90;;;;;;5125322;27;19922;-56
2022/07/16 05:45:47;;;;;;;;;;;16.60;99.90;;;;;;5124770;27;20282;-56
2022/07/16 05:48:27;;;;;;;;;;;16.40;99.90;;;;;;5114444;27;19919;-56
2022/07/16 05:51:07;;;;;;;;;;;16.20;99.90;;;;;;5104025;27;19926;-56
2022/07/16 05:53:46;;;;;;;;;;;16.00;99.90;;;;;;5124400;27;19918;-56
2022/07/16 05:56:26;;;;;;;;;;;15.90;99.90;;;;;;5103225;27;19962;-56
2022/07/16 05:59:06;;;;;;;;;;;15.70;99.90;;;;;;5105250;27;19912;-56
2022/07/16 06:01:46;;;;;;;;;;;15.60;99.90;;;;;;5123433;27;20392;-56
2022/07/16 06:04:26;;;;;;;;;;;15.60;99.90;;;;;;5084614;28;19966;-56
2022/07/16 06:07:05;;;;;;;;;;;15.60;99.90;;;;;;5102086;27;19949;-56
2022/07/16 06:09:45;;;;;;;;;;;15.70;99.90;;;;;;5124257;27;19916;-56
2022/07/16 06:12:25;;;;;;;;;;;15.90;99.90;;;;;;5104696;27;20335;-56
2022/07/16 06:15:05;;;;;;;;;;;16.00;99.90;;;;;;5089448;27;20527;-56
2022/07/16 06:17:46;;;;;;;;;;;16.00;99.90;;;;;;5114349;27;19930;-55
2022/07/16 06:20:26;;;;;;;;;;;16.20;99.90;;;;;;5123027;27;19918;-55
2022/07/16 06:23:06;;;;;;;;;;;16.30;99.90;;;;;;5124346;27;19922;-55
2022/07/16 06:25:46;;;;;;;;;;;16.40;99.90;;;;;;5124452;27;20403;-56
2022/07/16 06:28:26;;;;;;;;;;;16.50;99.90;;;;;;5105117;27;20424;-56
2022/07/16 06:31:06;;;;;;;;;;;16.60;99.90;;;;;;5125764;27;19918;-56
2022/07/16 06:33:45;;;;;;;;;;;16.50;99.90;;;;;;5126183;27;19912;-56
2022/07/16 06:36:25;;;;;;;;;;;16.50;99.90;;;;;;5104347;27;19912;-56
2022/07/16 06:39:07;;;;;;;;;;;16.60;99.90;;;;;;5124176;27;20039;-56
2022/07/16 06:41:48;;;;;;;;;;;16.60;99.90;;;;;;5104485;27;20319;-55
2022/07/16 06:44:28;;;;;;;;;;;16.70;99.90;;;;;;5124480;27;20299;-56
2022/07/16 06:47:08;;;;;;;;;;;16.70;99.90;;;;;;5120873;27;19926;-56
2022/07/16 06:49:47;;;;;;;;;;;16.80;99.90;;;;;;5123122;27;19920;-56
2022/07/16 06:52:27;;;;;;;;;;;16.90;99.90;;;;;;5124235;27;20450;-55
2022/07/16 06:55:08;;;;;;;;;;;16.90;99.90;;;;;;5124375;27;20318;-56
2022/07/16 06:57:49;;;;;;;;;;;17.00;99.90;;;;;;5123314;27;19915;-55
2022/07/16 07:00:28;;;;;;;;;;;17.10;99.90;;;;;;5123521;27;19919;-56
2022/07/16 07:03:11;;;;;;;;;;;17.30;99.90;;;;;;5103938;27;19916;-56
2022/07/16 07:05:51;;;;;;;;;;;17.40;99.90;;;;;;5124090;27;20190;-56
2022/07/16 07:08:31;;;;;;;;;;;17.50;99.90;;;;;;5124063;27;19916;-55
2022/07/16 07:11:11;;;;;;;;;;;17.60;99.90;;;;;;5103795;27;19926;-56
2022/07/16 07:13:51;;;;;;;;;;;17.60;99.90;;;;;;5124102;27;19912;-56
2022/07/16 07:16:31;;;;;;;;;;;17.70;99.90;;;;;;5123261;27;19918;-55
2022/07/16 07:19:11;;;;;;;;;;;18.00;99.90;;;;;;5123651;27;19916;-56
2022/07/16 07:21:52;;;;;;;;;;;18.10;99.90;;;;;;5124333;27;19911;-56
2022/07/16 07:24:32;;;;;;;;;;;18.20;99.90;;;;;;5120553;27;20300;-56
2022/07/16 07:27:11;;;;;;;;;;;18.30;99.90;;;;;;5085592;27;19918;-56
2022/07/16 07:29:51;;;;;;;;;;;18.50;99.90;;;;;;5119650;27;19916;-55
2022/07/16 07:32:31;;;;;;;;;;;18.70;99.90;;;;;;5120948;27;19918;-56
2022/07/16 07:35:11;;;;;;;;;;;18.90;99.70;;;;;;5064250;28;19913;-56
2022/07/16 07:37:51;;;;;;;;;;;19.10;96.20;;;;;;5092912;27;19923;-56
2022/07/16 07:40:31;;;;;;;;;;;19.10;91.70;;;;;;5107871;27;19926;-56
2022/07/16 07:43:10;;;;;;;;;;;19.20;75.80;;;;;;5104071;27;20236;-56
2022/07/16 07:45:50;;;;;;;;;;;19.40;73.90;;;;;;5121866;27;19926;-56
2022/07/16 07:48:30;;;;;;;;;;;19.50;77.00;;;;;;5123533;27;20650;-56
2022/07/16 07:51:11;;;;;;;;;;;19.70;76.30;;;;;;5101035;27;19916;-56
2022/07/16 07:53:51;;;;;;;;;;;19.90;69.00;;;;;;5122189;27;19915;-55
2022/07/16 07:56:31;;;;;;;;;;;20.00;67.00;;;;;;5102356;27;19923;-55
2022/07/16 07:59:11;;;;;;;;;;;20.10;64.40;;;;;;5117304;27;20448;-56
2022/07/16 08:01:51;;;;;;;;;;;20.30;61.20;;;;;;5123127;27;20426;-56
2022/07/16 08:04:33;;;;;;;;;;;20.30;58.70;;;;;;5098856;27;19912;-56
2022/07/16 08:07:14;;;;;;;;;;;20.30;59.20;;;;;;5100169;27;19930;-56
2022/07/16 08:09:53;;;;;;;;;;;20.50;59.10;;;;;;5092072;27;19920;-56
2022/07/16 08:12:33;;;;;;;;;;;20.80;56.80;;;;;;5093222;28;20260;-56
2022/07/16 08:15:13;;;;;;;;;;;21.10;55.30;;;;;;5125283;27;20323;-56
2022/07/16 08:17:53;;;;;;;;;;;20.90;57.20;;;;;;5096294;28;19918;-56
2022/07/16 08:20:33;;;;;;;;;;;20.80;57.40;;;;;;5125849;27;19926;-56
2022/07/16 08:23:13;;;;;;;;;;;20.20;56.00;;;;;;5087943;28;19917;-56
2022/07/16 08:25:54;;;;;;;;;;;19.70;58.00;;;;;;5118009;27;19949;-56
2022/07/16 08:28:34;;;;;;;;;;;19.80;58.50;;;;;;5125239;27;19926;-56
2022/07/16 08:31:14;;;;;;;;;;;20.20;56.50;;;;;;5100708;27;19926;-56
2022/07/16 08:33:55;;;;;;;;;;;20.50;54.60;;;;;;5110465;27;19961;-56
2022/07/16 08:36:36;;;;;;;;;;;20.90;54.20;;;;;;5124074;27;19919;-55
2022/07/16 08:39:16;;;;;;;;;;;21.00;53.20;;;;;;5124848;27;19961;-55
2022/07/16 08:41:56;;;;;;;;;;;21.10;53.90;;;;;;5125427;27;19912;-56
2022/07/16 08:44:37;;;;;;;;;;;21.20;51.90;;;;;;5125472;27;20365;-56
2022/07/16 08:47:18;;;;;;;;;;;21.30;50.90;;;;;;5120219;27;19912;-55
2022/07/16 08:49:58;;;;;;;;;;;21.20;50.50;;;;;;5125227;27;19949;-55
2022/07/16 08:52:42;;;;;;;;;;;21.10;52.50;;;;;;5111097;27;19926;-56
2022/07/16 08:55:24;;;;;;;;;;;21.10;49.60;;;;;;5107166;27;19926;-55
2022/07/16 08:58:06;;;;;;;;;;;21.00;50.00;;;;;;5144240;22;19928;-53
2022/07/16 09:00:46;;;;;;;;;;;21.00;51.20;;;;;;5123940;27;20350;-53
2022/07/16 09:03:26;;;;;;;;;;;21.00;50.00;;;;;;5088959;28;19912;-54
2022/07/16 09:06:06;;;;;;;;;;;20.90;51.20;;;;;;5108052;27;19916;-53
2022/07/16 09:08:46;;;;;;;;;;;21.00;51.20;;;;;;5124358;27;19912;-54
2022/07/16 09:11:27;;;;;;;;;;;21.30;51.20;;;;;;5125532;27;19915;-53
2022/07/16 09:14:08;;;;;;;;;;;21.60;49.10;;;;;;5107408;27;19926;-54
2022/07/16 09:16:50;;;;;;;;;;;21.60;49.20;;;;;;5123045;27;19916;-54
2022/07/16 09:19:30;;;;;;;;;;;21.70;49.40;;;;;;5086686;27;19920;-54
2022/07/16 09:22:11;;;;;;;;;;;22.00;50.00;;;;;;5124071;27;19911;-54
2022/07/16 09:24:52;;;;;;;;;;;22.20;48.40;;;;;;5125125;27;20285;-53
2022/07/16 09:27:36;;;;;;;;;;;22.30;47.30;;;;;;5124213;27;19912;-54
2022/07/16 09:30:23;;;;;;;;;;;22.30;47.20;;;;;;5124829;27;20142;-54
2022/07/16 09:33:11;;;;;;;;;;;22.50;46.60;;;;;;5106883;27;19977;-54
2022/07/16 09:36:05;;;;;;;;;;;22.50;47.50;;;;;;5124572;27;19911;-54
2022/07/16 09:38:49;;;;;;;;;;;22.60;45.90;;;;;;5116173;27;19923;-54
2022/07/16 09:41:40;;;;;;;;;;;23.00;45.60;;;;;;5106088;27;20122;-54
2022/07/16 09:44:20;;;;;;;;;;;23.30;45.10;;;;;;5106468;27;19926;-54
2022/07/16 09:47:05;;;;;;;;;;;23.90;44.90;;;;;;5122625;27;19925;-54
2022/07/16 09:49:53;;;;;;;;;;;23.80;43.80;;;;;;5124698;27;19912;-54
2022/07/16 09:52:34;;;;;;;;;;;23.80;42.90;;;;;;5124395;27;20274;-54
2022/07/16 09:55:15;;;;;;;;;;;23.70;43.20;;;;;;5124230;27;19922;-53
2022/07/16 09:58:03;;;;;;;;;;;23.70;43.40;;;;;;5123368;27;19916;-54
2022/07/16 10:00:42;;;;;;;;;;;23.90;42.80;;;;;;5125529;27;19911;-54
2022/07/16 10:03:22;;;;;;;;;;;24.20;40.90;;;;;;5125182;27;20278;-54
2022/07/16 10:06:02;;;;;;;;;;;24.80;41.40;;;;;;5100107;27;19926;-54
2022/07/16 10:08:43;;;;;;;;;;;24.80;40.00;;;;;;5085163;27;19934;-54
2022/07/16 10:11:24;;;;;;;;;;;24.70;41.60;;;;;;5123698;27;20319;-54
2022/07/16 10:14:03;;;;;;;;;;;24.80;38.10;;;;;;5124200;27;20373;-54
2022/07/16 10:16:45;;;;;;;;;;;24.50;39.10;;;;;;5118427;27;19922;-54
2022/07/16 10:19:33;;;;;;;;;;;24.40;39.40;;;;;;5094460;27;19920;-54
2022/07/16 10:22:21;;;;;;;;;;;24.30;41.10;;;;;;5123339;27;19911;-54
2022/07/16 10:25:10;;;;;;;;;;;24.10;42.10;;;;;;5110247;27;20202;-54
2022/07/16 10:27:50;;;;;;;;;;;24.00;41.40;;;;;;5099208;27;19931;-54
2022/07/16 10:30:31;;;;;;;;;;;23.90;41.10;;;;;;5123924;27;19911;-54
2022/07/16 10:33:16;;;;;;;;;;;24.30;41.60;;;;;;5123712;27;20454;-54
2022/07/16 10:36:05;;;;;;;;;;;25.20;40.30;;;;;;5123509;27;19912;-54
2022/07/16 10:39:02;;;;;;;;;;;25.60;38.70;;;;;;5112513;27;19912;-53
2022/07/16 10:41:49;;;;;;;;;;;26.10;38.70;;;;;;5124252;27;19912;-54
2022/07/16 10:44:43;;;;;;;;;;;27.00;37.40;;;;;;5135392;27;19912;-54
2022/07/16 10:47:41;;;;;;;;;;;27.40;35.60;;;;;;5134451;27;20385;-53
2022/07/16 10:50:23;;;;;;;;;;;27.40;35.00;;;;;;5105313;27;20323;-54
2022/07/16 10:53:03;;;;;;;;;;;27.20;35.80;;;;;;5125129;27;19924;-54
2022/07/16 10:55:43;;;;;;;;;;;27.40;34.20;;;;;;5084568;28;19912;-54
2022/07/16 10:58:26;;;;;;;;;;;27.10;34.30;;;;;;5116833;27;20511;-54
2022/07/16 11:01:06;;;;;;;;;;;26.60;34.10;;;;;;5188542;27;19911;-53
2022/07/16 11:03:50;;;;;;;;;;;26.20;33.80;;;;;;5104354;27;20292;-54
2022/07/16 11:06:31;;;;;;;;;;;26.00;35.10;;;;;;5124413;27;19911;-54
2022/07/16 11:09:10;;;;;;;;;;;25.90;35.70;;;;;;5110116;27;19916;-53
2022/07/16 11:11:50;;;;;;;;;;;26.10;34.80;;;;;;5125945;27;19953;-53
2022/07/16 11:14:30;;;;;;;;;;;25.80;35.00;;;;;;5105250;27;20381;-54
2022/07/16 11:17:10;;;;;;;;;;;25.40;36.20;;;;;;5124644;27;20410;-54
2022/07/16 11:19:50;;;;;;;;;;;25.20;36.00;;;;;;5101489;27;19926;-51
2022/07/16 11:22:31;;;;;;;;;;;25.50;36.40;;;;;;5124796;27;19918;-54
2022/07/16 11:25:11;;;;;;;;;;;26.00;36.20;;;;;;5105101;27;19916;-54
2022/07/16 11:27:51;;;;;;;;;;;26.00;34.80;;;;;;5124263;27;19930;-54
2022/07/16 11:30:31;;;;;;;;;;;25.60;35.60;;;;;;5125670;27;19911;-54
2022/07/16 11:33:10;;;;;;;;;;;25.10;37.00;;;;;;5125669;27;19916;-54
2022/07/16 11:36:03;;;;;;;;;;;24.90;38.20;;;;;;5125352;27;20532;-54
2022/07/16 11:38:44;;;;;;;;;;;25.10;36.80;;;;;;5113982;27;19923;-54
2022/07/16 11:41:24;;;;;;;;;;;25.90;35.00;;;;;;5125496;27;19919;-54
2022/07/16 11:44:09;;;;;;;;;;;26.50;34.60;;;;;;5105120;27;19969;-53
2022/07/16 11:46:51;;;;;;;;;;;26.60;34.20;;;;;;5124734;27;19919;-54
2022/07/16 11:49:32;;;;;;;;;;;26.40;33.60;;;;;;5107188;27;20308;-53
2022/07/16 11:52:22;;;;;;;;;;;26.40;33.50;;;;;;5125945;27;19912;-54
2022/07/16 11:55:11;;;;;;;;;;;26.20;34.60;;;;;;5125510;27;20281;-54
2022/07/16 11:57:52;;;;;;;;;;;26.60;34.50;;;;;;5100269;27;20548;-54
2022/07/16 12:00:43;;;;;;;;;;;27.30;34.60;;;;;;5125779;27;20266;-54
2022/07/16 12:03:23;;;;;;;;;;;27.70;32.30;;;;;;5125141;27;19915;-54
2022/07/16 12:06:04;;;;;;;;;;;27.60;33.20;;;;;;5124505;27;19920;-54
2022/07/16 12:08:52;;;;;;;;;;;27.20;33.10;;;;;;5116195;27;19926;-54
2022/07/16 12:11:33;;;;;;;;;;;27.20;32.90;;;;;;5125798;27;19912;-54
2022/07/16 12:14:13;;;;;;;;;;;27.30;34.20;;;;;;5125838;27;19918;-54
2022/07/16 12:16:54;;;;;;;;;;;27.60;34.10;;;;;;5104579;27;20605;-54
2022/07/16 12:19:34;;;;;;;;;;;27.00;33.20;;;;;;5086616;27;19917;-54
2022/07/16 12:22:14;;;;;;;;;;;26.70;33.70;;;;;;5104341;27;19982;-54
2022/07/16 12:24:54;;;;;;;;;;;26.60;33.50;;;;;;5084733;28;20565;-53
2022/07/16 12:27:45;;;;;;;;;;;26.60;33.80;;;;;;5123329;27;20262;-53
2022/07/16 12:30:31;;;;;;;;;;;26.70;35.80;;;;;;5125899;27;19916;-54
2022/07/16 12:33:22;;;;;;;;;;;27.50;33.20;;;;;;5126132;27;19919;-54
2022/07/16 12:36:03;;;;;;;;;;;28.10;32.00;;;;;;5125111;27;19912;-54
2022/07/16 12:38:49;;;;;;;;;;;27.90;32.60;;;;;;5093857;27;20331;-54
2022/07/16 12:41:29;;;;;;;;;;;27.70;31.90;;;;;;5105531;27;19926;-54
2022/07/16 12:44:10;;;;;;;;;;;27.60;32.50;;;;;;5126004;27;19916;-54
2022/07/16 12:46:52;;;;;;;;;;;27.70;33.30;;;;;;5124692;27;19918;-54
2022/07/16 12:49:33;;;;;;;;;;;27.30;32.80;;;;;;5107263;27;19927;-54
2022/07/16 12:52:14;;;;;;;;;;;26.60;34.10;;;;;;5125669;27;19916;-54
2022/07/16 13:00:49;;;;;;;;;;;27.50;33.20;;;;;;5125518;27;19949;-54
2022/07/16 13:03:29;;;;;;;;;;;27.70;33.00;;;;;;5124892;27;19926;-54
2022/07/16 13:06:09;;;;;;;;;;;27.90;32.30;;;;;;5124526;27;19915;-54
2022/07/16 13:08:49;;;;;;;;;;;27.70;33.50;;;;;;5092872;27;19916;-54
2022/07/16 13:11:30;;;;;;;;;;;27.20;32.90;;;;;;5125398;27;19915;-54
2022/07/16 13:14:10;;;;;;;;;;;26.70;33.50;;;;;;5105365;27;19957;-54
2022/07/16 13:16:52;;;;;;;;;;;26.10;34.90;;;;;;5124873;27;19934;-54
2022/07/16 13:19:32;;;;;;;;;;;26.40;34.90;;;;;;5107447;27;19920;-54
2022/07/16 13:22:12;;;;;;;;;;;26.70;35.10;;;;;;5125651;27;19918;-54
2022/07/16 13:24:52;;;;;;;;;;;26.70;34.80;;;;;;5125886;27;19918;-54
2022/07/16 13:27:32;;;;;;;;;;;26.40;35.00;;;;;;5123380;27;19911;-54
2022/07/16 13:30:12;;;;;;;;;;;26.70;34.50;;;;;;5105354;27;19926;-54
2022/07/16 13:32:51;;;;;;;;;;;26.80;34.00;;;;;;5125974;27;19912;-54
2022/07/16 13:35:31;;;;;;;;;;;26.50;34.70;;;;;;5104763;27;19961;-54
2022/07/16 13:38:11;;;;;;;;;;;26.70;35.50;;;;;;5118578;27;19919;-53
2022/07/16 13:40:51;;;;;;;;;;;27.10;35.20;;;;;;5125568;27;20520;-54
2022/07/16 13:43:31;;;;;;;;;;;27.40;33.40;;;;;;5125622;27;20407;-54
2022/07/16 13:46:11;;;;;;;;;;;27.60;33.00;;;;;;5101555;27;19930;-54
2022/07/16 13:48:50;;;;;;;;;;;27.90;32.80;;;;;;5109356;27;19916;-54
2022/07/16 13:51:30;;;;;;;;;;;27.70;32.40;;;;;;5099039;27;19954;-53
2022/07/16 13:54:10;;;;;;;;;;;26.90;33.70;;;;;;5120951;27;19912;-54
2022/07/16 13:56:50;;;;;;;;;;;26.30;34.80;;;;;;5101416;27;20288;-54
2022/07/16 13:59:32;;;;;;;;;;;25.90;35.90;;;;;;5087604;27;19943;-53
2022/07/16 14:02:11;;;;;;;;;;;25.90;36.60;;;;;;5099243;27;19969;-53
2022/07/16 14:04:51;;;;;;;;;;;25.80;36.10;;;;;;5118720;27;21869;-53
2022/07/16 14:07:31;;;;;;;;;;;25.80;36.40;;;;;;5112823;27;19912;-53
2022/07/16 14:10:13;;;;;;;;;;;25.60;36.30;;;;;;5114031;27;19916;-54
2022/07/16 14:12:52;;;;;;;;;;;25.40;37.30;;;;;;5082174;28;20397;-54
2022/07/16 14:15:33;;;;;;;;;;;25.60;37.30;;;;;;5154874;27;20322;-54
2022/07/16 14:18:13;;;;;;;;;;;25.60;37.40;;;;;;5100130;27;19953;-54
2022/07/16 14:20:54;;;;;;;;;;;25.60;38.00;;;;;;5085823;27;19962;-53
2022/07/16 14:23:34;;;;;;;;;;;26.00;36.10;;;;;;5119088;27;19912;-54
2022/07/16 14:26:14;;;;;;;;;;;25.90;36.30;;;;;;5114637;27;19920;-53
2022/07/16 14:28:54;;;;;;;;;;;25.90;36.50;;;;;;5090718;27;19969;-54
2022/07/16 14:31:34;;;;;;;;;;;25.70;36.60;;;;;;5089454;28;20382;-53
2022/07/16 14:34:14;;;;;;;;;;;25.90;37.50;;;;;;5107837;27;20385;-54
2022/07/16 14:36:54;;;;;;;;;;;26.40;37.10;;;;;;5123849;27;19916;-53
2022/07/16 14:39:34;;;;;;;;;;;27.00;35.80;;;;;;5105962;27;19920;-54
2022/07/16 14:42:13;;;;;;;;;;;27.10;35.00;;;;;;5125289;27;19912;-54
2022/07/16 14:44:53;;;;;;;;;;;27.00;34.10;;;;;;5125492;27;19918;-54
2022/07/16 14:47:33;;;;;;;;;;;26.60;34.40;;;;;;5104125;27;20440;-54
2022/07/16 14:50:13;;;;;;;;;;;26.10;35.40;;;;;;5124835;27;20495;-54
2022/07/16 14:52:54;;;;;;;;;;;25.90;35.50;;;;;;5124515;27;19919;-54
2022/07/16 14:55:34;;;;;;;;;;;25.70;35.90;;;;;;5083874;28;20274;-54
2022/07/16 14:58:14;;;;;;;;;;;25.70;34.80;;;;;;5100719;27;20370;-53
2022/07/16 15:00:58;;;;;;;;;;;25.70;35.10;;;;;;5124601;27;19920;-54
2022/07/16 15:03:38;;;;;;;;;;;25.80;35.30;;;;;;5114073;27;19916;-52
2022/07/16 15:06:18;;;;;;;;;;;25.60;35.80;;;;;;5104150;27;19954;-52
2022/07/16 15:09:10;;;;;;;;;;;25.70;37.20;;;;;;5125328;27;19912;-54
2022/07/16 15:11:50;;;;;;;;;;;25.90;33.60;;;;;;5104879;27;20324;-55
2022/07/16 15:14:30;;;;;;;;;;;25.90;34.20;;;;;;5125405;27;20311;-54
2022/07/16 15:17:09;;;;;;;;;;;25.60;34.50;;;;;;5124320;27;20105;-52
2022/07/16 15:19:49;;;;;;;;;;;25.70;37.10;;;;;;5102183;27;19930;-52
2022/07/16 15:22:29;;;;;;;;;;;25.60;34.40;;;;;;5124958;27;19912;-52
2022/07/16 15:25:09;;;;;;;;;;;25.30;34.70;;;;;;5125179;27;19916;-53
2022/07/16 15:27:50;;;;;;;;;;;25.30;35.60;;;;;;5119950;27;19926;-55
2022/07/16 15:30:30;;;;;;;;;;;25.60;36.30;;;;;;5125167;27;20161;-53
2022/07/16 15:36:09;;;;;;;;;;;25.80;34.90;;;;;;5123429;27;19919;-52
2022/07/16 15:38:50;;;;;;;;;;;26.00;35.10;;;;;;5112839;27;19912;-55
2022/07/16 15:41:32;;;;;;;;;;;26.30;37.30;;;;;;5124944;27;19916;-53
2022/07/16 15:44:12;;;;;;;;;;;27.60;34.70;;;;;;5125754;27;19912;-53
2022/07/16 15:46:51;;;;;;;;;;;29.40;31.70;;;;;;5124437;27;19922;-54
2022/07/16 15:49:31;;;;;;;;;;;30.80;30.10;;;;;;5105933;27;19913;-53
2022/07/16 15:52:11;;;;;;;;;;;31.60;29.10;;;;;;5125612;27;20300;-55
2022/07/16 15:54:51;;;;;;;;;;;32.10;28.40;;;;;;5125527;27;19912;-57